Time;durP1;ratioP1;P1;durP2;ratioP2;P2;SDS_P1;SDS_P2;PMS_P1;PMS_P2;Temp;Humidity;BMP_temperature;BMP_pressure;BME280_temperature;BME280_humidity;BME280_pressure;Samples;Min_cycle;Max_cycle;Signal;HPM_P1;HPM_P2
2021/12/18 00:01:23;;;;;;;21.65;10.00;;;3.10;99.90;;;;;;2603525;54;20082;31
2021/12/18 00:03:58;;;;;;;24.03;9.67;;;3.20;99.90;;;;;;2603570;54;20023;31
2021/12/18 00:06:31;;;;;;;24.55;10.80;;;3.10;99.90;;;;;;2701999;39;22408;31
2021/12/18 00:09:08;;;;;;;23.27;10.10;;;3.10;99.90;;;;;;2603609;54;20023;31
2021/12/18 00:11:42;;;;;;;17.20;10.30;;;3.10;99.90;;;;;;2622049;46;20092;31
2021/12/18 00:14:19;;;;;;;20.00;10.13;;;3.10;99.90;;;;;;2603500;54;20925;31
2021/12/18 00:16:53;;;;;;;22.05;9.70;;;3.10;99.90;;;;;;2603486;54;20060;31
2021/12/18 00:19:27;;;;;;;19.73;10.45;;;3.20;99.90;;;;;;2603525;54;20070;31
2021/12/18 00:22:01;;;;;;;20.55;9.25;;;3.20;99.90;;;;;;2603512;54;20081;31
2021/12/18 00:24:37;;;;;;;19.40;8.97;;;3.20;99.90;;;;;;2603511;54;20522;31
2021/12/18 00:27:11;;;;;;;19.42;9.48;;;3.20;99.90;;;;;;2603594;54;20757;31
2021/12/18 00:29:48;;;;;;;21.33;9.50;;;3.20;99.90;;;;;;2622335;46;20872;31
2021/12/18 00:32:22;;;;;;;21.70;9.80;;;3.20;99.90;;;;;;2621667;46;20844;31
2021/12/18 00:34:56;;;;;;;21.20;9.88;;;3.20;99.90;;;;;;2621431;46;20895;31
2021/12/18 00:37:30;;;;;;;18.23;9.93;;;3.30;99.90;;;;;;2603431;54;19973;31
2021/12/18 00:40:09;;;;;;;20.58;10.05;;;3.20;99.90;;;;;;2603683;54;20026;31
2021/12/18 00:42:47;;;;;;;15.90;8.38;;;3.20;99.90;;;;;;2701890;39;21489;31
2021/12/18 00:45:25;;;;;;;17.38;8.85;;;3.20;99.90;;;;;;2603557;54;20038;31
2021/12/18 00:47:59;;;;;;;22.35;10.02;;;3.30;99.90;;;;;;2604166;46;20046;31
2021/12/18 00:50:33;;;;;;;20.60;10.13;;;3.20;99.90;;;;;;2603292;54;20045;31
2021/12/18 00:53:07;;;;;;;18.67;9.65;;;3.40;99.90;;;;;;2622104;46;20815;31
2021/12/18 00:55:42;;;;;;;17.00;8.85;;;3.30;99.90;;;;;;2603395;54;20063;31
2021/12/18 00:58:16;;;;;;;21.95;9.18;;;3.30;99.90;;;;;;2603536;54;20023;31
2021/12/18 01:00:54;;;;;;;18.52;9.18;;;3.40;99.90;;;;;;2603356;54;20924;31
2021/12/18 01:03:29;;;;;;;23.02;9.50;;;3.30;99.90;;;;;;2603408;54;20030;31
2021/12/18 01:06:04;;;;;;;19.45;9.40;;;3.30;99.90;;;;;;2603317;54;20867;31
2021/12/18 01:08:38;;;;;;;22.85;10.18;;;3.40;99.90;;;;;;2602987;54;20030;31
2021/12/18 01:14:13;;;;;;;23.93;11.03;;;3.40;99.90;;;;;;2603067;54;20042;31
2021/12/18 01:17:00;;;;;;;21.67;9.55;;;3.40;99.90;;;;;;2603464;54;20267;31
2021/12/18 01:25:07;;;;;;;20.53;10.50;;;3.30;99.90;;;;;;2603333;54;20880;31
2021/12/18 01:27:42;;;;;;;18.42;9.93;;;3.30;99.90;;;;;;2603365;54;20868;31
2021/12/18 01:30:17;;;;;;;20.65;11.05;;;3.30;99.90;;;;;;2603201;54;20038;31
2021/12/18 01:32:54;;;;;;;20.75;11.45;;;3.30;99.90;;;;;;2603399;54;20034;31
2021/12/18 01:35:29;;;;;;;22.60;10.50;;;3.30;99.90;;;;;;2621544;46;20027;31
2021/12/18 01:38:03;;;;;;;25.40;11.57;;;3.30;99.90;;;;;;2603333;54;20026;31
2021/12/18 01:40:39;;;;;;;20.30;10.50;;;3.30;99.90;;;;;;2622346;46;20827;31
2021/12/18 01:46:14;;;;;;;21.75;10.90;;;3.30;99.90;;;;;;2603065;54;20248;31
2021/12/18 01:52:00;;;;;;;19.38;10.13;;;3.30;99.90;;;;;;2603224;54;20085;31
2021/12/18 01:54:34;;;;;;;22.33;9.98;;;3.30;99.90;;;;;;2603109;54;20052;31
2021/12/18 01:57:07;;;;;;;24.27;11.43;;;3.30;99.90;;;;;;2701901;39;21039;31
2021/12/18 01:59:45;;;;;;;25.20;10.75;;;3.30;99.90;;;;;;2603296;54;20368;31
2021/12/18 02:02:20;;;;;;;20.80;10.85;;;3.20;99.90;;;;;;2603390;54;20061;31
2021/12/18 02:04:58;;;;;;;17.98;9.00;;;3.20;99.90;;;;;;2610335;39;21010;31
2021/12/18 02:07:33;;;;;;;23.15;10.40;;;3.30;99.90;;;;;;2621264;47;20033;31
2021/12/18 02:10:11;;;;;;;20.77;10.10;;;3.20;99.90;;;;;;2603142;54;20904;31
2021/12/18 02:12:49;;;;;;;21.90;9.80;;;3.30;99.90;;;;;;2610741;39;21218;31
2021/12/18 02:21:06;;;;;;;25.23;10.50;;;3.30;99.90;;;;;;2612919;47;20081;31
2021/12/18 02:23:40;;;;;;;21.60;10.68;;;3.20;99.90;;;;;;2603013;54;20030;31
2021/12/18 02:26:14;;;;;;;18.05;10.50;;;3.20;99.90;;;;;;2603068;54;20023;31
2021/12/18 02:28:49;;;;;;;19.38;10.10;;;3.20;99.90;;;;;;2602994;54;20062;31
2021/12/18 02:31:24;;;;;;;13.50;9.40;;;3.20;99.90;;;;;;2602908;54;20038;31
2021/12/18 02:33:56;;;;;;;18.00;10.10;;;3.20;99.90;;;;;;2621298;47;21824;31
2021/12/18 02:36:33;;;;;;;17.30;10.00;;;3.20;99.90;;;;;;2603185;54;20088;31
2021/12/18 02:39:20;;;;;;;24.53;11.73;;;3.20;99.90;;;;;;2603182;54;20907;31
2021/12/18 02:42:08;;;;;;;;;;;3.20;99.90;;;;;;2603304;54;20310;31
2021/12/18 02:44:44;;;;;;;22.90;11.18;;;3.20;99.90;;;;;;2608269;47;19934;31
2021/12/18 02:47:19;;;;;;;19.65;11.23;;;3.20;99.90;;;;;;2603081;54;20081;31
2021/12/18 02:49:53;;;;;;;24.35;11.25;;;3.20;99.90;;;;;;2603024;54;20023;31
2021/12/18 02:52:32;;;;;;;21.90;11.60;;;3.20;99.90;;;;;;2603149;54;20866;31
2021/12/18 02:55:06;;;;;;;28.42;13.82;;;3.20;99.90;;;;;;2603219;54;20888;31
2021/12/18 02:57:41;;;;;;;20.45;11.75;;;3.20;99.90;;;;;;2603172;54;20027;31
2021/12/18 03:00:16;;;;;;;24.87;11.53;;;3.20;99.90;;;;;;2602910;54;20040;31
2021/12/18 03:02:51;;;;;;;25.23;12.80;;;3.20;99.90;;;;;;2602898;54;20253;31
2021/12/18 03:05:32;;;;;;;21.63;11.77;;;3.20;99.90;;;;;;2602946;54;20910;31
2021/12/18 03:08:15;;;;;;;25.60;12.57;;;3.20;99.90;;;;;;2603521;54;20254;31
2021/12/18 03:25:01;;;;;;;28.08;12.05;;;3.10;99.90;;;;;;2622382;46;20031;31
2021/12/18 03:27:36;;;;;;;27.25;11.95;;;3.10;99.90;;;;;;2603528;54;20034;31
2021/12/18 03:30:11;;;;;;;25.85;11.75;;;3.00;99.90;;;;;;2603715;54;20069;31
2021/12/18 03:32:46;;;;;;;21.77;11.10;;;3.10;99.90;;;;;;2603849;54;20033;31
2021/12/18 03:35:21;;;;;;;25.17;11.40;;;3.10;99.90;;;;;;2603714;54;20030;31
2021/12/18 03:37:56;;;;;;;25.90;11.82;;;3.10;99.90;;;;;;2603763;54;20042;31
2021/12/18 03:40:33;;;;;;;23.23;11.67;;;3.10;99.90;;;;;;2603853;54;20891;31
2021/12/18 03:43:07;;;;;;;23.27;10.52;;;3.10;99.90;;;;;;2603792;54;21064;31
2021/12/18 03:45:42;;;;;;;25.83;11.20;;;3.10;99.90;;;;;;2603728;54;20033;31
2021/12/18 03:48:16;;;;;;;24.08;10.85;;;3.10;99.90;;;;;;2603752;54;20036;31
2021/12/18 03:50:52;;;;;;;23.45;9.60;;;3.10;99.90;;;;;;2603708;54;20855;31
2021/12/18 03:53:26;;;;;;;21.92;10.75;;;3.10;99.90;;;;;;2603732;54;20912;31
2021/12/18 03:56:03;;;;;;;24.15;9.85;;;3.10;99.90;;;;;;2603417;54;20896;31
2021/12/18 03:58:39;;;;;;;26.65;11.18;;;3.00;99.90;;;;;;2603788;54;20049;31
2021/12/18 04:01:13;;;;;;;18.92;10.55;;;3.00;99.90;;;;;;2603628;54;20042;31
2021/12/18 04:03:47;;;;;;;23.83;10.23;;;3.10;99.90;;;;;;2611042;39;22226;31
2021/12/18 04:06:22;;;;;;;21.35;10.32;;;3.10;99.90;;;;;;2604125;46;20057;31
2021/12/18 04:08:57;;;;;;;22.95;10.95;;;3.10;99.90;;;;;;2613017;46;20872;31
2021/12/18 04:11:34;;;;;;;24.55;10.25;;;3.10;99.90;;;;;;2603690;54;20042;31
2021/12/18 04:14:10;;;;;;;25.87;10.27;;;3.10;99.90;;;;;;2603618;54;20042;31
2021/12/18 04:16:44;;;;;;;20.70;10.18;;;3.10;99.90;;;;;;2603548;54;20848;31
2021/12/18 04:19:18;;;;;;;23.25;10.82;;;3.20;99.90;;;;;;2603444;54;20097;31
2021/12/18 04:21:53;;;;;;;26.65;10.85;;;3.10;99.90;;;;;;2603635;54;20046;31
2021/12/18 04:24:28;;;;;;;18.77;10.57;;;3.10;99.90;;;;;;2603536;54;20181;31
2021/12/18 04:27:05;;;;;;;23.35;10.88;;;3.10;99.90;;;;;;2603545;54;20057;31
2021/12/18 04:29:39;;;;;;;18.55;9.82;;;3.10;99.90;;;;;;2603525;54;20050;31
2021/12/18 04:32:13;;;;;;;25.45;10.50;;;3.10;99.90;;;;;;2603553;54;20058;31
2021/12/18 04:34:47;;;;;;;19.38;10.00;;;3.10;99.90;;;;;;2603593;54;20116;31
2021/12/18 04:37:23;;;;;;;21.48;10.70;;;3.10;99.90;;;;;;2622192;46;20498;31
2021/12/18 04:39:57;;;;;;;24.67;9.83;;;3.10;99.90;;;;;;2603567;54;20046;31
2021/12/18 04:42:34;;;;;;;20.70;10.63;;;3.10;99.90;;;;;;2621482;46;20037;31
2021/12/18 04:45:09;;;;;;;18.90;9.10;;;3.10;99.90;;;;;;2621930;46;20046;31
2021/12/18 04:47:43;;;;;;;25.77;9.35;;;3.10;99.90;;;;;;2603731;54;20046;31
2021/12/18 04:50:17;;;;;;;20.70;9.77;;;3.10;99.90;;;;;;2603406;54;20841;31
2021/12/18 04:52:51;;;;;;;24.02;9.63;;;3.10;99.90;;;;;;2603440;54;20038;31
2021/12/18 04:55:25;;;;;;;17.35;8.82;;;3.10;99.90;;;;;;2603457;54;20033;31
2021/12/18 04:58:02;;;;;;;17.67;8.05;;;3.10;99.90;;;;;;2603348;54;20828;31
2021/12/18 05:00:41;;;;;;;23.02;8.90;;;3.10;99.90;;;;;;2603598;54;20027;31
2021/12/18 05:03:17;;;;;;;18.52;8.10;;;3.10;99.90;;;;;;2603510;54;20081;31
2021/12/18 05:05:51;;;;;;;;;;;3.10;99.90;;;;;;2603740;54;20046;31
2021/12/18 05:08:24;;;;;;;18.67;8.70;;;3.10;99.90;;;;;;2610025;39;21030;31
2021/12/18 05:10:58;;;;;;;22.77;8.23;;;3.20;99.90;;;;;;2603632;54;20027;31
2021/12/18 05:13:35;;;;;;;20.90;8.50;;;3.10;99.90;;;;;;2603988;46;20100;31
2021/12/18 05:16:07;;;;;;;17.48;7.75;;;3.10;99.90;;;;;;2701773;39;21109;31
2021/12/18 05:18:41;;;;;;;18.48;7.65;;;3.10;99.90;;;;;;2603182;54;20029;31
2021/12/18 05:21:15;;;;;;;22.58;8.02;;;3.10;99.90;;;;;;2603302;54;20033;31
2021/12/18 05:23:49;;;;;;;17.10;8.10;;;3.10;99.90;;;;;;2608479;46;20053;31
2021/12/18 05:26:23;;;;;;;21.30;8.75;;;3.10;99.90;;;;;;2603286;54;20152;31
2021/12/18 05:29:00;;;;;;;17.55;7.55;;;3.10;99.90;;;;;;2603312;54;20034;31
2021/12/18 05:31:34;;;;;;;19.65;7.78;;;3.10;99.90;;;;;;2603218;54;20926;31
2021/12/18 05:34:08;;;;;;;19.35;9.27;;;3.10;99.90;;;;;;2603224;54;20858;31
2021/12/18 05:37:12;;;;;;;17.77;8.25;;;3.10;99.90;;;;;;2603339;54;20100;31
2021/12/18 05:39:37;;;;;;;20.33;7.97;;;3.10;99.90;;;;;;2603353;54;20053;31
2021/12/18 05:42:11;;;;;;;18.20;8.98;;;3.10;99.90;;;;;;2604136;46;20030;31
2021/12/18 05:44:48;;;;;;;18.05;8.18;;;3.10;99.90;;;;;;2603409;54;20835;31
2021/12/18 05:47:23;;;;;;;15.88;8.00;;;3.10;99.90;;;;;;2621944;46;20867;31
2021/12/18 05:49:57;;;;;;;19.50;8.23;;;3.10;99.90;;;;;;2603211;54;20057;31
2021/12/18 05:52:32;;;;;;;16.05;7.78;;;3.00;99.90;;;;;;2603069;54;20060;31
2021/12/18 05:55:07;;;;;;;15.70;7.25;;;3.10;99.90;;;;;;2603267;54;20816;31
2021/12/18 05:57:41;;;;;;;18.80;8.30;;;3.00;99.90;;;;;;2621936;46;20875;31
2021/12/18 06:00:22;;;;;;;21.10;8.00;;;3.00;99.90;;;;;;2603051;54;20070;31
2021/12/18 06:02:56;;;;;;;19.15;7.40;;;3.10;99.90;;;;;;2603443;54;20057;31
2021/12/18 06:05:30;;;;;;;18.55;7.88;;;3.10;99.90;;;;;;2603201;54;20045;31
2021/12/18 06:08:09;;;;;;;18.27;8.20;;;3.10;99.90;;;;;;2603160;54;20026;31
2021/12/18 06:10:44;;;;;;;21.25;8.60;;;3.10;99.90;;;;;;2603413;54;20026;31
2021/12/18 06:13:18;;;;;;;16.27;7.90;;;3.10;99.90;;;;;;2603503;54;20809;31
2021/12/18 06:15:55;;;;;;;14.70;7.60;;;3.10;99.90;;;;;;2603045;54;20085;31
2021/12/18 06:18:29;;;;;;;17.38;8.05;;;3.10;99.90;;;;;;2603385;54;20887;31
2021/12/18 06:21:03;;;;;;;16.50;7.45;;;3.10;99.90;;;;;;2603052;54;20060;31
2021/12/18 06:23:37;;;;;;;17.70;8.85;;;3.10;99.90;;;;;;2603062;54;20023;31
2021/12/18 06:26:11;;;;;;;17.50;8.95;;;3.10;99.90;;;;;;2603129;54;20931;31
2021/12/18 06:28:45;;;;;;;14.68;8.43;;;3.10;99.90;;;;;;2621749;47;20030;31
2021/12/18 06:31:39;;;;;;;17.97;8.07;;;3.10;99.90;;;;;;2603107;54;20050;31
2021/12/18 06:34:15;;;;;;;17.40;8.40;;;3.10;99.90;;;;;;2603300;54;20838;31
2021/12/18 06:36:50;;;;;;;19.23;7.90;;;3.00;99.90;;;;;;2603084;54;20034;31
2021/12/18 06:39:24;;;;;;;18.03;7.53;;;3.20;99.90;;;;;;2602923;54;20915;31
2021/12/18 06:41:58;;;;;;;13.13;6.93;;;3.10;99.90;;;;;;2603324;54;21168;31
2021/12/18 06:44:32;;;;;;;16.40;7.20;;;3.10;99.90;;;;;;2604003;54;20254;31
2021/12/18 06:47:09;;;;;;;12.90;7.60;;;3.00;99.90;;;;;;2603833;54;20030;31
2021/12/18 06:49:43;;;;;;;14.05;6.32;;;3.10;99.90;;;;;;2603880;54;20183;31
2021/12/18 06:52:18;;;;;;;19.80;7.17;;;3.10;99.90;;;;;;2604029;54;20057;31
2021/12/18 06:54:52;;;;;;;10.55;6.57;;;3.10;99.90;;;;;;2603981;54;20812;31
2021/12/18 06:57:26;;;;;;;16.42;5.50;;;3.00;99.90;;;;;;2603853;54;20053;31
2021/12/18 07:00:00;;;;;;;9.02;5.60;;;3.00;99.90;;;;;;2604071;54;20031;31
2021/12/18 07:02:37;;;;;;;11.10;5.65;;;3.00;99.90;;;;;;2603969;54;20026;31
2021/12/18 07:05:12;;;;;;;12.30;6.30;;;3.00;99.90;;;;;;2603647;54;20030;31
2021/12/18 07:07:46;;;;;;;11.25;6.50;;;3.00;99.90;;;;;;2603732;54;20254;31
2021/12/18 07:10:21;;;;;;;8.85;5.30;;;3.00;99.90;;;;;;2603595;54;20027;31
2021/12/18 07:12:58;;;;;;;10.70;6.32;;;3.00;99.90;;;;;;2603900;54;20027;31
2021/12/18 07:15:32;;;;;;;9.52;5.65;;;3.00;99.90;;;;;;2603036;54;20915;31
2021/12/18 07:18:10;;;;;;;12.73;6.78;;;3.00;99.90;;;;;;2603971;54;20767;31
2021/12/18 07:20:45;;;;;;;14.60;6.50;;;2.90;99.90;;;;;;2622151;46;20026;31
2021/12/18 07:23:19;;;;;;;15.68;7.50;;;2.90;99.90;;;;;;2603927;54;20869;31
2021/12/18 07:25:53;;;;;;;11.35;7.00;;;2.90;99.90;;;;;;2603666;54;20128;31
2021/12/18 07:28:28;;;;;;;17.20;7.53;;;2.90;99.90;;;;;;2617566;46;20033;31
2021/12/18 07:31:02;;;;;;;13.02;7.13;;;3.00;99.90;;;;;;2613260;46;20042;31
2021/12/18 07:33:43;;;;;;;16.95;8.02;;;3.00;99.90;;;;;;2603617;54;20056;31
2021/12/18 07:36:18;;;;;;;15.82;8.68;;;3.00;99.90;;;;;;2603370;54;20909;31
2021/12/18 07:38:52;;;;;;;22.77;9.40;;;3.00;99.90;;;;;;2603794;54;20034;31
2021/12/18 07:41:27;;;;;;;17.13;8.75;;;3.00;99.90;;;;;;2603685;54;21065;31
2021/12/18 07:44:01;;;;;;;16.40;9.63;;;3.10;99.90;;;;;;2622192;46;20899;31
2021/12/18 07:46:36;;;;;;;17.83;9.67;;;3.00;99.90;;;;;;2603569;54;20042;31
2021/12/18 07:49:12;;;;;;;18.60;10.27;;;3.00;99.90;;;;;;2603563;54;20240;31
2021/12/18 07:51:47;;;;;;;18.15;10.43;;;3.00;99.90;;;;;;2615745;46;20881;31
2021/12/18 07:54:24;;;;;;;17.90;10.40;;;3.10;99.90;;;;;;2603973;54;20031;31
2021/12/18 07:56:58;;;;;;;21.52;11.35;;;3.10;99.90;;;;;;2603591;54;20951;31
2021/12/18 07:59:33;;;;;;;18.45;10.18;;;3.10;99.90;;;;;;2603626;54;20053;31
2021/12/18 08:02:07;;;;;;;22.92;11.30;;;3.10;99.90;;;;;;2603851;54;20838;31
2021/12/18 08:04:48;;;;;;;18.42;11.32;;;3.10;99.90;;;;;;2603638;54;20084;31
2021/12/18 08:07:23;;;;;;;14.75;10.32;;;3.20;99.90;;;;;;2603606;54;20046;31
2021/12/18 08:09:58;;;;;;;19.42;10.27;;;3.10;99.90;;;;;;2603432;54;20148;31
2021/12/18 08:12:32;;;;;;;20.15;11.00;;;3.10;99.90;;;;;;2603876;54;20053;31
2021/12/18 08:15:08;;;;;;;16.65;9.85;;;3.10;99.90;;;;;;2602922;54;20856;31
2021/12/18 08:17:41;;;;;;;19.93;11.07;;;3.10;99.90;;;;;;2603692;54;20092;31
2021/12/18 08:20:19;;;;;;;18.77;9.98;;;3.10;99.90;;;;;;2605266;54;20235;31
2021/12/18 08:22:57;;;;;;;20.27;11.15;;;3.10;99.90;;;;;;2603424;54;20026;31
2021/12/18 08:25:33;;;;;;;16.77;11.07;;;3.10;99.90;;;;;;2603612;54;20039;31
2021/12/18 08:28:07;;;;;;;17.00;10.30;;;3.20;99.90;;;;;;2603518;54;20046;31
2021/12/18 08:30:42;;;;;;;16.50;11.23;;;3.10;99.90;;;;;;2603334;54;20715;31
2021/12/18 08:33:18;;;;;;;20.60;11.93;;;3.10;99.90;;;;;;2602601;54;20148;31
2021/12/18 08:35:54;;;;;;;19.73;9.93;;;3.10;99.90;;;;;;2603684;54;20019;31
2021/12/18 08:38:29;;;;;;;21.98;11.27;;;3.20;99.90;;;;;;2603474;54;20801;31
2021/12/18 08:41:05;;;;;;;19.30;11.27;;;3.20;99.90;;;;;;2603335;46;20030;31
2021/12/18 08:43:39;;;;;;;17.70;11.75;;;3.20;99.90;;;;;;2603444;54;20868;31
2021/12/18 08:46:16;;;;;;;16.10;10.75;;;3.30;99.90;;;;;;2603552;54;20840;31
2021/12/18 08:48:54;;;;;;;16.38;10.32;;;3.30;99.90;;;;;;2603496;54;20030;31
2021/12/18 08:51:28;;;;;;;18.55;11.55;;;3.30;99.90;;;;;;2603424;54;20859;31
2021/12/18 08:54:06;;;;;;;18.55;12.40;;;3.40;99.90;;;;;;2603280;47;20900;31
2021/12/18 08:56:40;;;;;;;17.30;11.40;;;3.40;99.90;;;;;;2603439;54;20100;31
2021/12/18 08:59:14;;;;;;;19.80;12.30;;;3.40;99.90;;;;;;2608878;46;20097;31
2021/12/18 09:01:48;;;;;;;22.60;13.23;;;3.50;99.90;;;;;;2603569;54;20049;31
2021/12/18 09:04:23;;;;;;;22.50;12.45;;;3.50;99.90;;;;;;2603147;54;20029;31
2021/12/18 09:06:58;;;;;;;18.97;12.67;;;3.50;99.90;;;;;;2603481;54;20888;31
2021/12/18 09:09:35;;;;;;;22.17;13.10;;;3.50;99.90;;;;;;2603326;54;20287;31
2021/12/18 09:12:10;;;;;;;21.60;12.75;;;3.60;99.90;;;;;;2603285;54;20093;31
2021/12/18 09:14:45;;;;;;;;;;;3.60;99.90;;;;;;2603672;54;20026;31
2021/12/18 09:17:20;;;;;;;21.33;11.77;;;3.70;99.90;;;;;;2603407;54;19993;31
2021/12/18 09:19:54;;;;;;;18.38;11.40;;;3.70;99.90;;;;;;2608395;46;20026;31
2021/12/18 09:22:30;;;;;;;;;;;3.70;99.90;;;;;;2603455;54;20247;31
2021/12/18 09:25:06;;;;;;;20.38;11.57;;;3.80;99.90;;;;;;2603286;54;19934;31
2021/12/18 09:27:41;;;;;;;19.15;10.15;;;3.80;99.90;;;;;;2603355;54;20077;31
2021/12/18 09:30:16;;;;;;;22.77;11.48;;;3.90;99.90;;;;;;2603292;54;20777;31
2021/12/18 09:32:50;;;;;;;18.95;10.20;;;3.90;99.90;;;;;;2603216;54;20052;31
2021/12/18 09:35:24;;;;;;;15.55;10.15;;;4.00;99.90;;;;;;2603209;54;20031;31
2021/12/18 09:37:59;;;;;;;15.98;10.57;;;4.10;99.90;;;;;;2603245;54;20841;31
2021/12/18 09:40:37;;;;;;;15.30;8.65;;;4.20;99.90;;;;;;2603398;54;20026;31
2021/12/18 09:43:11;;;;;;;23.92;12.70;;;4.20;99.90;;;;;;2603299;54;20798;31
2021/12/18 09:45:45;;;;;;;23.77;13.02;;;4.30;99.90;;;;;;2603466;54;21251;31
2021/12/18 09:48:20;;;;;;;18.20;10.23;;;4.20;99.90;;;;;;2607114;46;20124;31
2021/12/18 09:50:57;;;;;;;17.13;9.77;;;4.30;99.90;;;;;;2602516;54;20796;31
2021/12/18 09:53:31;;;;;;;16.42;8.98;;;4.30;99.90;;;;;;2603152;54;20921;31
2021/12/18 09:56:08;;;;;;;19.40;8.50;;;4.30;99.90;;;;;;2603247;54;20050;31
2021/12/18 09:58:42;;;;;;;20.52;9.10;;;4.30;99.90;;;;;;2603600;54;20022;31
2021/12/18 10:01:14;;;;;;;16.52;8.35;;;4.30;99.90;;;;;;2610394;54;20045;-74
2021/12/18 10:03:48;;;;;;;12.43;7.35;;;4.30;99.90;;;;;;2614784;54;20026;31
2021/12/18 10:06:39;;;;;;;14.30;8.10;;;4.30;99.90;;;;;;2605748;54;21549;31
2021/12/18 10:09:31;;;;;;;15.07;8.52;;;4.30;99.90;;;;;;2612607;47;20258;31
2021/12/18 10:12:11;;;;;;;16.45;8.27;;;4.40;99.90;;;;;;2701665;39;21323;31
2021/12/18 10:14:46;;;;;;;15.43;7.00;;;4.40;99.90;;;;;;2621920;47;20030;31
2021/12/18 10:17:30;;;;;;;13.10;6.90;;;4.50;99.90;;;;;;2603972;54;21305;31
2021/12/18 10:20:20;;;;;;;12.95;7.25;;;4.50;99.90;;;;;;2604218;54;20209;31
2021/12/18 10:22:52;;;;;;;14.33;7.50;;;4.50;99.90;;;;;;2604088;54;20883;31
2021/12/18 10:25:27;;;;;;;12.98;6.43;;;4.50;99.90;;;;;;2604115;54;20284;31
2021/12/18 10:28:08;;;;;;;18.33;9.10;;;4.50;99.90;;;;;;2604200;54;20802;31
2021/12/18 10:30:46;;;;;;;15.25;7.40;;;4.60;99.90;;;;;;2721142;39;20445;31
2021/12/18 10:33:20;;;;;;;15.02;7.35;;;4.50;99.90;;;;;;2603830;54;20027;31
2021/12/18 10:35:54;;;;;;;16.20;7.90;;;4.60;99.90;;;;;;2604135;54;20108;31
2021/12/18 10:38:42;;;;;;;16.98;7.63;;;4.60;99.90;;;;;;2604031;54;20030;31
2021/12/18 10:41:28;;;;;;;17.02;8.50;;;4.60;99.90;;;;;;2604731;46;20026;31
2021/12/18 10:44:08;;;;;;;13.90;8.10;;;4.60;99.90;;;;;;2603930;54;20081;31
2021/12/18 10:46:43;;;;;;;15.07;7.93;;;4.60;99.90;;;;;;2604305;54;20764;31
2021/12/18 10:49:21;;;;;;;12.88;6.50;;;4.60;99.90;;;;;;2604151;54;20853;31
2021/12/18 10:51:59;;;;;;;13.45;6.88;;;4.60;99.90;;;;;;2605183;54;20042;31
2021/12/18 10:54:38;;;;;;;11.02;7.05;;;4.60;99.90;;;;;;2608972;54;20019;31
2021/12/18 10:57:21;;;;;;;16.25;8.55;;;4.60;99.90;;;;;;2604110;54;20105;31
2021/12/18 10:59:58;;;;;;;16.02;7.72;;;4.60;99.90;;;;;;2603709;54;20018;31
2021/12/18 11:02:32;;;;;;;12.45;6.80;;;4.60;99.90;;;;;;2604028;54;20026;31
2021/12/18 11:05:24;;;;;;;12.30;7.20;;;4.70;99.90;;;;;;2614610;31;22280;31
2021/12/18 11:08:10;;;;;;;15.55;7.95;;;4.60;99.90;;;;;;2604235;54;20050;31
2021/12/18 11:10:55;;;;;;;12.68;8.80;;;4.70;99.90;;;;;;2604113;54;20888;31
2021/12/18 11:13:38;;;;;;;15.40;8.60;;;4.60;99.90;;;;;;2603943;54;20033;31
2021/12/18 11:16:14;;;;;;;15.57;7.97;;;4.70;99.90;;;;;;2603747;54;20019;31
2021/12/18 11:18:48;;;;;;;15.27;8.30;;;4.60;99.90;;;;;;2603652;54;20239;31
2021/12/18 11:21:20;;;;;;;12.73;7.72;;;4.70;99.90;;;;;;2603722;54;20019;31
2021/12/18 11:23:57;;;;;;;14.65;7.25;;;4.70;99.90;;;;;;2603762;54;20023;31
2021/12/18 11:26:31;;;;;;;22.80;8.73;;;4.60;99.90;;;;;;2603646;54;20123;31
2021/12/18 11:29:05;;;;;;;14.50;8.13;;;4.70;99.90;;;;;;2603791;54;20101;31
2021/12/18 11:31:40;;;;;;;17.85;8.63;;;4.70;99.90;;;;;;2604040;54;20827;31
2021/12/18 11:34:14;;;;;;;21.50;10.02;;;4.60;99.90;;;;;;2603683;54;20096;31
2021/12/18 11:36:59;;;;;;;18.73;10.45;;;4.70;99.90;;;;;;2603664;54;20093;31
2021/12/18 11:39:33;;;;;;;18.33;9.57;;;4.70;99.90;;;;;;2614423;31;21050;31
2021/12/18 11:42:08;;;;;;;18.60;9.80;;;4.70;99.90;;;;;;2610811;39;22676;31
2021/12/18 11:44:44;;;;;;;18.85;9.35;;;4.80;99.90;;;;;;2603783;54;20045;31
2021/12/18 11:47:32;;;;;;;16.23;7.47;;;4.80;99.90;;;;;;2603896;54;20101;31
2021/12/18 11:50:10;;;;;;;19.80;9.13;;;4.70;99.90;;;;;;2603882;54;20883;31
2021/12/18 11:53:01;;;;;;;14.73;8.43;;;4.70;99.90;;;;;;2603756;54;20955;31
2021/12/18 11:55:38;;;;;;;13.57;8.48;;;4.70;99.90;;;;;;2603667;54;20033;31
2021/12/18 11:58:14;;;;;;;14.68;8.50;;;4.80;99.90;;;;;;2603719;54;20881;31
2021/12/18 12:00:50;;;;;;;13.30;8.55;;;4.80;99.90;;;;;;2603463;54;20026;31
2021/12/18 12:03:33;;;;;;;;;;;4.80;99.90;;;;;;2604681;46;20282;31
2021/12/18 12:06:07;;;;;;;13.43;7.50;;;4.80;99.90;;;;;;2603726;54;20584;31
2021/12/18 12:08:42;;;;;;;14.18;7.97;;;4.80;99.90;;;;;;2608142;46;20915;31
2021/12/18 12:11:20;;;;;;;;;;;4.80;99.90;;;;;;2603960;54;20057;31
2021/12/18 12:14:12;;;;;;;14.30;9.15;;;4.80;99.90;;;;;;2603654;54;20037;31
2021/12/18 12:17:08;;;;;;;12.18;8.05;;;4.80;99.90;;;;;;2603541;54;20033;31
2021/12/18 12:19:58;;;;;;;16.10;7.97;;;4.90;99.90;;;;;;2604133;46;20897;31
2021/12/18 12:22:43;;;;;;;13.18;8.55;;;4.90;99.90;;;;;;2603562;54;20289;31
2021/12/18 12:25:20;;;;;;;12.10;8.43;;;4.90;99.90;;;;;;2621655;46;20822;31
2021/12/18 12:28:03;;;;;;;13.40;8.40;;;4.90;99.90;;;;;;2603625;54;20081;31
2021/12/18 12:30:43;;;;;;;15.73;7.65;;;4.90;99.90;;;;;;2603683;54;20044;31
2021/12/18 12:33:27;;;;;;;13.20;8.35;;;4.90;99.90;;;;;;2622181;46;20046;31
2021/12/18 12:36:07;;;;;;;12.95;8.57;;;4.90;99.90;;;;;;2603513;54;20023;31
2021/12/18 12:38:45;;;;;;;10.80;7.20;;;4.90;99.90;;;;;;2603315;54;20034;31
2021/12/18 12:41:32;;;;;;;10.73;7.78;;;4.90;99.90;;;;;;2606482;54;20045;31
2021/12/18 12:44:12;;;;;;;;;;;5.00;99.90;;;;;;2604018;54;20026;31
2021/12/18 12:46:46;;;;;;;10.13;6.97;;;4.90;99.90;;;;;;2603801;54;20009;31
2021/12/18 12:49:20;;;;;;;10.95;7.78;;;5.00;99.90;;;;;;2603650;54;19950;31
2021/12/18 12:52:11;;;;;;;10.70;7.65;;;4.90;99.90;;;;;;2603334;54;20030;31
2021/12/18 12:54:54;;;;;;;9.93;7.23;;;4.90;99.90;;;;;;2603743;54;20041;31
2021/12/18 12:57:30;;;;;;;9.48;7.35;;;4.90;99.90;;;;;;2622216;46;20036;31
2021/12/18 13:00:34;;;;;;;12.50;6.90;;;4.90;99.90;;;;;;2603728;54;20903;31
2021/12/18 13:03:18;;;;;;;10.90;7.00;;;4.90;99.90;;;;;;2605586;54;20281;31
2021/12/18 13:06:00;;;;;;;10.32;6.88;;;4.90;99.90;;;;;;2611837;54;20086;31
2021/12/18 13:08:33;;;;;;;9.90;6.55;;;4.90;99.90;;;;;;2608142;54;20098;31
2021/12/18 13:11:11;;;;;;;9.77;6.97;;;4.90;99.90;;;;;;2612225;54;20987;31
2021/12/18 13:13:46;;;;;;;10.95;7.53;;;4.90;99.90;;;;;;2605406;54;20033;31
2021/12/18 13:16:19;;;;;;;13.07;8.10;;;4.90;99.90;;;;;;2605030;54;20086;31
2021/12/18 13:18:54;;;;;;;10.55;7.93;;;4.80;99.90;;;;;;2603156;54;20824;31
2021/12/18 13:21:29;;;;;;;9.93;7.80;;;4.90;99.90;;;;;;2603265;54;20026;31
2021/12/18 13:24:04;;;;;;;11.23;8.13;;;4.90;99.90;;;;;;2621830;46;20076;31
2021/12/18 13:26:43;;;;;;;9.40;7.65;;;4.90;99.90;;;;;;2604153;46;20263;31
2021/12/18 13:29:19;;;;;;;9.93;8.05;;;4.90;99.90;;;;;;2603243;54;20046;31
2021/12/18 13:31:54;;;;;;;15.75;8.55;;;4.90;99.90;;;;;;2603468;54;20022;31
2021/12/18 13:34:27;;;;;;;12.80;9.40;;;4.90;99.90;;;;;;2612508;54;20029;31
2021/12/18 13:37:04;;;;;;;13.55;9.00;;;5.00;99.90;;;;;;2603502;54;20884;31
2021/12/18 13:39:43;;;;;;;13.15;9.82;;;5.00;99.90;;;;;;2603517;54;20117;31
2021/12/18 13:42:20;;;;;;;13.73;9.83;;;5.00;99.90;;;;;;2603572;54;20039;31
2021/12/18 13:44:55;;;;;;;14.57;9.48;;;4.90;99.90;;;;;;2606571;47;20045;31
2021/12/18 13:47:30;;;;;;;12.45;8.98;;;5.00;99.90;;;;;;2612233;54;21003;31
2021/12/18 13:50:06;;;;;;;14.82;10.20;;;5.00;99.90;;;;;;2618010;46;21338;31
2021/12/18 13:52:49;;;;;;;12.65;9.55;;;5.00;99.90;;;;;;2614567;46;20922;-78
2021/12/18 13:55:31;;;;;;;12.75;10.15;;;5.00;99.90;;;;;;2611967;54;20021;31
2021/12/18 13:58:05;;;;;;;12.75;10.00;;;5.00;99.90;;;;;;2609722;46;20026;-76
2021/12/18 14:00:56;;;;;;;13.60;10.55;;;5.00;99.90;;;;;;2636794;39;20957;31
2021/12/18 14:03:33;;;;;;;13.75;10.65;;;5.00;99.90;;;;;;2615553;54;20105;31
2021/12/18 14:06:11;;;;;;;15.10;11.02;;;5.00;99.90;;;;;;2615087;54;20049;31
2021/12/18 14:08:45;;;;;;;15.40;10.43;;;5.00;99.90;;;;;;2629161;46;20270;31
2021/12/18 14:11:26;;;;;;;14.27;9.45;;;5.00;99.90;;;;;;2617381;54;20023;31
2021/12/18 14:14:05;;;;;;;14.13;10.02;;;5.00;99.90;;;;;;2615602;54;20933;31
2021/12/18 14:16:40;;;;;;;11.90;8.73;;;5.00;99.90;;;;;;2608246;54;20754;31
2021/12/18 14:19:14;;;;;;;12.10;8.37;;;5.00;99.90;;;;;;2615249;47;20029;31